Data for 01/30/2008

Time Sea-Level Adjusted Pressure Absolute Pressure Temperature Relative Humidity Dew Point   
(mb) (inHg) (mb) (inHg) (C) (F) (%) (C) (F)
00:05 1003 29.62 832 24.57 -5.3 22.4 65 -11 12.2
00:10 1003 29.62 832 24.57 -5.3 22.4 66 -10.7 12.7
00:15 1003 29.62 832 24.57 -5.4 22.4 66 -10.7 12.7
00:20 1002 29.59 832 24.57 -5.5 22.2 67 -10.7 12.7
00:25 1002 29.59 832 24.57 -5.5 22.1 67 -10.7 12.7
00:30 1003 29.62 832 24.57 -5.6 22 67 -10.8 12.6
00:35 1003 29.62 832 24.57 -5.6 21.9 67 -10.7 12.7
00:40 1003 29.62 832 24.57 -5.7 21.7 69 -10.6 12.9
00:45 1003 29.62 832 24.57 -5.8 21.6 68 -10.8 12.6
00:50 1003 29.62 832 24.57 -5.8 21.5 68 -10.7 12.7
00:55 1003 29.62 832 24.57 -5.9 21.4 68 -10.9 12.4
01:00 1003 29.62 832 24.57 -5.9 21.4 68 -10.9 12.4
01:05 1003 29.62 832 24.57 -5.8 21.5 68 -10.8 12.5
01:10 1003 29.62 832 24.57 -5.8 21.5 68 -10.9 12.5
01:15 1003 29.62 832 24.57 -5.9 21.5 67 -11 12.2
01:20 1003 29.62 832 24.57 -5.9 21.4 67 -11 12.2
01:25 1003 29.62 832 24.57 -5.9 21.4 68 -10.9 12.4
01:30 1003 29.62 832 24.57 -6 21.2 68 -10.9 12.4
01:35 1003 29.62 832 24.57 -6.1 21 69 -10.9 12.4
01:40 1003 29.62 832 24.57 -6.1 21 69 -10.9 12.5
01:45 1003 29.62 832 24.57 -6.2 20.8 70 -10.9 12.4
01:50 1003 29.62 832 24.57 -6.3 20.7 71 -10.8 12.6
01:55 1003 29.62 832 24.57 -6.4 20.5 71 -10.8 12.6
02:00 1003 29.62 832 24.57 -6.5 20.3 72 -10.8 12.5
02:05 1003 29.62 832 24.57 -6.6 20.1 72 -10.9 12.4
02:10 1003 29.62 832 24.57 -6.6 20.2 71 -11 12.2
02:15 1003 29.62 832 24.57 -6.5 20.3 70 -11 12.1
02:20 1003 29.62 832 24.57 -6.4 20.5 71 -10.9 12.4
02:25 1003 29.62 832 24.57 -6.3 20.7 70 -10.9 12.5
02:30 1003 29.62 832 24.57 -6.3 20.7 71 -10.8 12.6
02:35 1003 29.62 832 24.57 -6.5 20.4 70 -11 12.2
02:40 1003 29.62 833 24.6 -6.1 21 65 -11.6 11.1
02:45 1003 29.62 833 24.6 -5.9 21.4 63 -11.8 10.8
02:50 1004 29.65 833 24.6 -5.8 21.5 64 -11.6 11.1
02:55 1004 29.65 833 24.6 -6.1 21.1 71 -10.4 13.2
03:00 1004 29.65 833 24.6 -6.4 20.4 71 -10.9 12.3
03:05 1004 29.65 833 24.6 -6.3 20.6 66 -11.7 11
03:10 1004 29.65 833 24.6 -6.1 21.1 64 -11.8 10.7
03:15 1004 29.65 833 24.6 -5.9 21.4 63 -11.8 10.7
03:20 1004 29.65 833 24.6 -5.8 21.6 62 -11.9 10.6
03:25 1004 29.65 833 24.6 -5.7 21.7 63 -11.8 10.8
03:30 1004 29.65 833 24.6 -5.8 21.5 64 -11.5 11.2
03:35 1004 29.65 833 24.6 -5.9 21.3 64 -11.7 10.9
03:40 1004 29.65 833 24.6 -6 21.2 64 -11.8 10.7
03:45 1004 29.65 833 24.6 -6.1 21 64 -11.8 10.7
03:50 1004 29.65 833 24.6 -6.1 21 65 -11.7 11
03:55 1004 29.65 833 24.6 -6.2 20.9 65 -11.7 10.9
04:00 1004 29.65 833 24.6 -6.2 20.9 65 -11.8 10.8
04:05 1004 29.65 833 24.6 -6.1 20.9 65 -11.8 10.8
04:10 1004 29.65 833 24.6 -6.2 20.8 65 -11.7 10.9
04:15 1004 29.65 833 24.6 -6.2 20.8 65 -11.7 10.9
04:20 1004 29.65 833 24.6 -6.3 20.7 65 -11.8 10.7
04:25 1004 29.65 833 24.6 -6.4 20.5 65 -11.8 10.7
04:30 1004 29.65 833 24.6 -6.4 20.4 67 -11.7 11
04:35 1004 29.65 833 24.6 -6.5 20.3 68 -11.5 11.4
04:40 1004 29.65 833 24.6 -7.1 19.2 69 -11.8 10.8
04:45 1004 29.65 833 24.6 -7.4 18.7 69 -12.2 10.1
04:50 1004 29.65 834 24.63 -7.5 18.6 70 -12.1 10.2
04:55 1004 29.65 834 24.63 -7.1 19.3 67 -12.2 10.1
05:00 1004 29.65 834 24.63 -7.1 19.2 67 -12.2 10
05:05 1005 29.68 834 24.63 -7 19.5 67 -12.1 10.3
05:10 1005 29.68 834 24.63 -7.2 19 68 -12.2 10
05:15 1005 29.68 834 24.63 -7.2 19 67 -12.3 9.9
05:20 1005 29.68 834 24.63 -7.2 19.1 67 -12.3 9.9
05:25 1005 29.68 834 24.63 -7.5 18.5 68 -12.5 9.5
05:30 1005 29.68 834 24.63 -7.4 18.7 66 -12.8 9
05:35 1005 29.68 834 24.63 -7.4 18.7 66 -12.7 9.1
05:40 1005 29.68 834 24.63 -7.6 18.4 67 -12.7 9.1
05:45 1005 29.68 834 24.63 -7.5 18.5 68 -12.5 9.6
05:50 1005 29.68 834 24.63 -7.4 18.7 68 -12.4 9.7
05:55 1005 29.68 834 24.63 -7.1 19.2 66 -12.4 9.7
06:00 1005 29.68 834 24.63 -7.1 19.3 67 -12.2 10
06:05 1005 29.68 834 24.63 -6.8 19.7 65 -12.3 9.9
06:10 1005 29.68 834 24.63 -6.6 20.1 65 -12.2 10.1
06:15 1005 29.68 834 24.63 -6.5 20.2 64 -12.2 10
06:20 1005 29.68 834 24.63 -6.9 19.6 65 -12.4 9.7
06:25 1005 29.68 834 24.63 -7.2 19 62 -13.3 8
06:30 1005 29.68 834 24.63 -7.4 18.6 61 -13.7 7.4
06:35 1005 29.68 835 24.66 -7.2 19.1 59 -13.8 7.1
06:40 1005 29.68 835 24.66 -7 19.4 60 -13.4 7.8
06:45 1005 29.68 835 24.66 -7 19.5 60 -13.5 7.6
06:50 1005 29.68 835 24.66 -7.2 19 61 -13.5 7.6
06:55 1006 29.71 835 24.66 -7.5 18.5 63 -13.4 7.8
07:00 1006 29.71 835 24.66 -7.7 18.1 65 -13.1 8.4
07:05 1006 29.71 835 24.66 -7.8 18 62 -13.9 7
07:10 1006 29.71 835 24.66 -7.7 18.1 64 -13.3 8.1
07:15 1006 29.71 835 24.66 -7.5 18.4 62 -13.7 7.4
07:20 1006 29.71 835 24.66 -7.3 18.9 60 -13.8 7.1
07:25 1006 29.71 835 24.66 -7.1 19.2 62 -13.2 8.3
07:30 1006 29.71 835 24.66 -7.1 19.2 60 -13.6 7.5
07:35 1006 29.71 835 24.66 -7.1 19.2 60 -13.5 7.7
07:40 1006 29.71 835 24.66 -7.1 19.2 59 -13.8 7.2
07:45 1006 29.71 835 24.66 -7.1 19.2 60 -13.6 7.5
07:50 1006 29.71 835 24.66 -7.2 19.1 59 -13.8 7.1
07:55 1006 29.71 835 24.66 -7.2 19 60 -13.7 7.3
08:00 1006 29.71 835 24.66 -7.2 19 60 -13.8 7.2
08:05 1006 29.71 835 24.66 -7.3 18.9 60 -13.7 7.3
08:10 1006 29.71 835 24.66 -7.3 18.8 57 -14.4 6
08:15 1006 29.71 836 24.69 -7.1 19.2 55 -14.7 5.5
08:20 1006 29.71 836 24.69 -6.9 19.6 54 -14.6 5.6
08:25 1006 29.71 836 24.69 -6.7 19.9 53 -14.7 5.5
08:30 1007 29.74 836 24.69 -6.8 19.7 53 -14.8 5.3
08:35 1007 29.74 836 24.69 -6.8 19.7 53 -14.8 5.3
08:40 1007 29.74 836 24.69 -6.9 19.5 52 -15.3 4.5
08:45 1007 29.74 836 24.69 -7 19.4 51 -15.6 3.9
08:50 1007 29.74 836 24.69 -6.9 19.6 51 -15.5 4.2
08:55 1007 29.74 836 24.69 -6.9 19.6 50 -15.7 3.8
09:00 1007 29.74 836 24.69 -7 19.4 50 -15.9 3.5
09:05 1007 29.74 836 24.69 -7 19.3 50 -15.9 3.4
09:10 1007 29.74 836 24.69 -7.1 19.3 50 -15.9 3.5
09:15 1007 29.74 836 24.69 -7 19.4 49 -16 3.2
09:20 1007 29.74 836 24.69 -6.8 19.8 49 -15.7 3.7
09:25 1007 29.74 836 24.69 -6.5 20.3 47 -16 3.3
09:30 1007 29.74 836 24.69 -6.3 20.7 46 -16.1 3
09:35 1007 29.74 837 24.72 -5.9 21.3 46 -15.8 3.6
09:40 1007 29.74 837 24.72 -5.7 21.7 47 -15.4 4.3
09:45 1007 29.74 837 24.72 -5.7 21.7 45 -15.8 3.5
09:50 1007 29.74 837 24.72 -5.7 21.8 45 -15.9 3.3
09:55 1007 29.74 837 24.72 -5.6 21.9 45 -15.6 3.8
10:00 1008 29.77 837 24.72 -5.6 22 46 -15.4 4.2
10:05 1008 29.77 837 24.72 -5.5 22 44 -15.8 3.5
10:10 1008 29.77 837 24.72 -5.5 22.1 44 -16 3.2
10:15 1008 29.77 837 24.72 -5.4 22.2 45 -15.5 4
10:20 1008 29.77 837 24.72 -5.3 22.4 43 -16 3.2
10:25 1008 29.77 837 24.72 -5.1 22.7 42 -16.2 2.8
10:30 1008 29.77 837 24.72 -5 23 42 -16 3.2
10:35 1008 29.77 837 24.72 -4.8 23.3 43 -15.6 3.9
10:40 1008 29.77 837 24.72 -4.5 23.8 42 -15.7 3.7
10:45 1008 29.77 837 24.72 -4.1 24.7 40 -15.9 3.5
10:50 1008 29.77 837 24.72 -3.7 25.4 42 -14.8 5.4
10:55 1008 29.77 838 24.75 -3.5 25.8 42 -14.6 5.6
11:00 1008 29.77 838 24.75 -3.4 25.8 40 -15.2 4.7
11:05 1008 29.77 838 24.75 -3.3 26 39 -15.5 4.1
11:10 1009 29.8 838 24.75 -3.4 25.9 40 -15.3 4.5
11:15 1009 29.8 838 24.75 -3.4 25.8 40 -15.2 4.6
11:20 1009 29.8 838 24.75 -3.5 25.6 41 -14.8 5.3
11:25 1009 29.8 838 24.75 -3.4 25.9 41 -14.9 5.2
11:30 1009 29.8 838 24.75 -3.3 26.1 40 -15.1 4.9
11:35 1009 29.8 838 24.75 -3.3 26.1 41 -14.8 5.4
11:40 1009 29.8 838 24.75 -3.1 26.4 40 -14.8 5.4
11:45 1009 29.8 838 24.75 -2.8 26.9 41 -14.4 6.1
11:50 1009 29.8 838 24.75 -2.9 26.7 41 -14.5 5.9
11:55 1009 29.8 838 24.75 -2.7 27.1 39 -14.7 5.5
12:00 1009 29.8 838 24.75 -2.8 26.9 39 -14.8 5.3
12:05 1009 29.8 838 24.75 -3.1 26.4 39 -15.2 4.6
12:10 1009 29.8 838 24.75 -3.3 26.1 40 -15.1 4.8
12:15 1009 29.8 838 24.75 -3.5 25.7 41 -15.1 4.9
12:20 1009 29.8 838 24.75 -3.4 25.9 42 -14.6 5.6
12:25 1009 29.8 838 24.75 -3.5 25.8 45 -13.7 7.3
12:30 1009 29.8 838 24.75 -3.9 25 45 -14.1 6.6
12:35 1009 29.8 838 24.75 -4.2 24.5 46 -14.1 6.7
12:40 1009 29.8 838 24.75 -4 24.8 45 -14.3 6.2
12:45 1009 29.8 838 24.75 -3.9 25.1 45 -14.1 6.6
12:50 1009 29.8 838 24.75 -3.7 25.3 43 -14.6 5.8
12:55 1009 29.8 838 24.75 -3.5 25.6 43 -14.4 6.1
13:00 1009 29.8 838 24.75 -3.5 25.7 44 -14.2 6.5
13:05 1009 29.8 838 24.75 -3.7 25.3 45 -14 6.7
13:10 1009 29.8 838 24.75 -3.8 25.2 44 -14.4 6
13:15 1009 29.8 838 24.75 -3.3 26 43 -14.4 6.2
13:20 1009 29.8 838 24.75 -2.9 26.7 42 -14.1 6.6
13:25 1009 29.8 838 24.75 -3.2 26.2 44 -13.9 6.9
13:30 1009 29.8 838 24.75 -3.5 25.6 45 -14 6.9
13:35 1009 29.8 838 24.75 -3.7 25.3 42 -14.7 5.5
13:40 1009 29.8 838 24.75 -3.7 25.4 44 -14.3 6.2
13:45 1009 29.8 838 24.75 -3.4 25.8 43 -14.4 6.1
13:50 1009 29.8 838 24.75 -3.2 26.2 43 -14.1 6.5
13:55 1009 29.8 838 24.75 -2.9 26.8 38 -15.3 4.4
14:00 1009 29.8 838 24.75 -2.2 28.1 38 -14.8 5.4
14:05 1009 29.8 838 24.75 -2.1 28.2 39 -14.2 6.4
14:10 1009 29.8 838 24.75 -2.6 27.4 40 -14.3 6.2
14:15 1009 29.8 838 24.75 -2.5 27.4 40 -14.3 6.3
14:20 1009 29.8 838 24.75 -2.4 27.7 40 -14.2 6.5
14:25 1009 29.8 838 24.75 -2.7 27.2 40 -14.6 5.7
14:30 1009 29.8 838 24.75 -3 26.6 42 -14.3 6.3
14:35 1009 29.8 838 24.75 -2.7 27.1 41 -14.3 6.3
14:40 1009 29.8 838 24.75 -2 28.5 37 -14.9 5.1
14:45 1009 29.8 838 24.75 -1.6 29.1 38 -14 6.8
14:50 1009 29.8 838 24.75 -1.5 29.3 38 -14.2 6.5
14:55 1009 29.8 838 24.75 -1.8 28.8 39 -14 6.9
15:00 1009 29.8 838 24.75 -1.9 28.6 38 -14.3 6.2
15:05 1009 29.8 838 24.75 -1.7 28.9 37 -14.7 5.5
15:10 1009 29.8 838 24.75 -2 28.3 38 -14.7 5.5
15:15 1009 29.8 838 24.75 -1.9 28.7 36 -15 5
15:20 1009 29.8 838 24.75 -1.7 28.9 36 -14.8 5.3
15:25 1009 29.8 839 24.78 -2 28.4 38 -14.5 5.9
15:30 1009 29.8 839 24.78 -2.6 27.3 40 -14.3 6.2
15:35 1009 29.8 839 24.78 -3.1 26.4 44 -13.8 7.2
15:40 1009 29.8 839 24.78 -3.6 25.6 43 -14.4 6.1
15:45 1010 29.83 839 24.78 -3.9 25.1 47 -13.7 7.3
15:50 1010 29.83 839 24.78 -3.9 25 47 -13.6 7.5
15:55 1010 29.83 839 24.78 -3.9 25 50 -12.9 8.7
16:00 1010 29.83 839 24.78 -3.7 25.3 49 -12.9 8.7
16:05 1010 29.83 839 24.78 -3.8 25.1 49 -13.1 8.5
16:10 1010 29.83 839 24.78 -4 24.7 51 -12.8 9
16:15 1010 29.83 839 24.78 -4.2 24.5 50 -13.1 8.5
16:20 1010 29.83 839 24.78 -4.5 23.9 51 -13.2 8.2
16:25 1010 29.83 839 24.78 -4.6 23.6 52 -13 8.7
16:30 1010 29.83 839 24.78 -4.8 23.3 54 -12.8 9
16:35 1010 29.83 839 24.78 -4.8 23.3 51 -13.4 7.9
16:40 1010 29.83 839 24.78 -4.8 23.4 54 -12.8 9
16:45 1010 29.83 839 24.78 -4.9 23.1 54 -12.8 9
16:50 1010 29.83 839 24.78 -5 23 54 -12.8 8.9
16:55 1010 29.83 839 24.78 -5.1 22.8 53 -13.2 8.3
17:00 1010 29.83 839 24.78 -4.8 23.3 51 -13.4 7.8
17:05 1010 29.83 839 24.78 -4.6 23.7 50 -13.5 7.6
17:10 1010 29.83 840 24.81 -4.6 23.7 50 -13.6 7.6
17:15 1010 29.83 840 24.81 -4.9 23.2 51 -13.6 7.5
17:20 1010 29.83 840 24.81 -4.9 23.1 51 -13.6 7.5
17:25 1010 29.83 840 24.81 -5.1 22.9 51 -13.7 7.4
17:30 1010 29.83 840 24.81 -5.3 22.5 49 -14.3 6.3
17:35 1010 29.83 840 24.81 -5.2 22.7 47 -14.7 5.6
17:40 1010 29.83 840 24.81 -5.2 22.7 46 -15 5.1
17:45 1010 29.83 840 24.81 -5.3 22.5 47 -15 5
17:50 1011 29.85 840 24.81 -5.4 22.3 48 -14.8 5.4
17:55 1011 29.85 840 24.81 -5.5 22 48 -15 5.1
18:00 1011 29.85 840 24.81 -5.6 22 48 -15 5
18:05 1011 29.85 840 24.81 -5.7 21.7 48 -15.2 4.7
18:10 1011 29.85 840 24.81 -5.8 21.5 47 -15.4 4.3
18:15 1011 29.85 840 24.81 -5.9 21.4 47 -15.4 4.3
18:20 1011 29.85 840 24.81 -5.8 21.5 47 -15.4 4.4
18:25 1011 29.85 840 24.81 -5.9 21.4 46 -15.7 3.8
18:30 1011 29.85 840 24.81 -5.9 21.4 47 -15.6 3.9
18:35 1011 29.85 840 24.81 -5.9 21.3 48 -15.3 4.5
18:40 1011 29.85 840 24.81 -6 21.1 47 -15.6 3.9
18:45 1011 29.85 840 24.81 -6.1 21.1 47 -15.7 3.7
18:50 1011 29.85 840 24.81 -6 21.1 47 -15.6 4
18:55 1011 29.85 841 24.83 -6 21.2 46 -15.9 3.3
19:00 1011 29.85 841 24.83 -6 21.3 45 -16 3.3
19:05 1011 29.85 841 24.83 -6.1 21.1 46 -15.8 3.5
19:10 1011 29.85 841 24.83 -6.1 21.1 46 -16 3.2
19:15 1011 29.85 841 24.83 -6.1 21 45 -16.1 3
19:20 1011 29.85 841 24.83 -6.1 21 45 -16.2 2.9
19:25 1012 29.88 841 24.83 -6.1 20.9 46 -16.1 3.1
19:30 1012 29.88 841 24.83 -6.2 20.9 45 -16.1 2.9
19:35 1012 29.88 841 24.83 -6.2 20.9 45 -16.2 2.8
19:40 1012 29.88 841 24.83 -6.2 20.8 46 -16 3.2
19:45 1012 29.88 841 24.83 -6.2 20.9 46 -16 3.1
19:50 1012 29.88 841 24.83 -6.2 20.8 46 -16.1 3.1
19:55 1012 29.88 841 24.83 -6.3 20.7 46 -16.2 2.9
20:00 1012 29.88 841 24.83 -6.4 20.5 47 -16 3.1
20:05 1012 29.88 841 24.83 -6.4 20.4 47 -16 3.3
20:10 1012 29.88 841 24.83 -6.3 20.6 46 -16.1 2.9
20:15 1012 29.88 841 24.83 -6.2 20.8 47 -15.9 3.4
20:20 1012 29.88 841 24.83 -6.2 20.9 46 -16 3.2
20:25 1012 29.88 841 24.83 -6.2 20.9 47 -15.8 3.6
20:30 1012 29.88 841 24.83 -6.2 20.9 46 -16 3.2
20:35 1012 29.88 841 24.83 -6.2 20.9 47 -15.8 3.5
20:40 1012 29.88 841 24.83 -6 21.1 45 -16.1 3
20:45 1012 29.88 841 24.83 -6.1 21.1 46 -15.9 3.4
20:50 1012 29.88 841 24.83 -6.2 20.8 46 -15.9 3.3
20:55 1012 29.88 841 24.83 -6.3 20.6 46 -16.1 2.9
21:00 1011 29.85 841 24.83 -6.2 20.9 45 -16.3 2.7
21:05 1011 29.85 841 24.83 -6 21.2 44 -16.3 2.6
21:10 1011 29.85 841 24.83 -5.9 21.4 43 -16.5 2.4
21:15 1011 29.85 841 24.83 -5.9 21.3 44 -16.4 2.6
21:20 1011 29.85 841 24.83 -6.1 21.1 44 -16.4 2.5
21:25 1011 29.85 841 24.83 -5.9 21.3 44 -16.4 2.4
21:30 1011 29.85 841 24.83 -5.9 21.4 44 -16.4 2.4
21:35 1011 29.85 841 24.83 -6 21.1 45 -16.3 2.7
21:40 1012 29.88 841 24.83 -6.4 20.4 47 -16.1 3.1
21:45 1012 29.88 841 24.83 -6.7 19.9 47 -16.3 2.6
21:50 1012 29.88 841 24.83 -6.5 20.3 45 -16.5 2.2
21:55 1012 29.88 841 24.83 -6.2 20.9 44 -16.5 2.4
22:00 1012 29.88 841 24.83 -6.1 21.1 44 -16.3 2.6
22:05 1012 29.88 841 24.83 -6.2 20.9 45 -16.3 2.7
22:10 1012 29.88 841 24.83 -6.1 21 44 -16.5 2.2
22:15 1012 29.88 841 24.83 -6 21.2 44 -16.4 2.5
22:20 1012 29.88 841 24.83 -6 21.2 44 -16.4 2.4
22:25 1012 29.88 841 24.83 -5.9 21.5 43 -16.6 2.2
22:30 1012 29.88 841 24.83 -5.8 21.5 45 -16.1 3.1
22:35 1012 29.88 841 24.83 -5.8 21.6 44 -16.1 3.1
22:40 1011 29.85 841 24.83 -5.7 21.8 45 -15.9 3.4
22:45 1011 29.85 840 24.81 -5.5 22 44 -15.9 3.3
22:50 1011 29.85 840 24.81 -5.5 22.1 44 -16 3.3
22:55 1011 29.85 840 24.81 -5.5 22.1 45 -15.7 3.8
23:00 1011 29.85 841 24.83 -5.6 22 44 -16 3.1
23:05 1011 29.85 841 24.83 -5.4 22.2 44 -15.9 3.3
23:10 1012 29.88 841 24.83 -5.5 22.1 44 -16 3.2
23:15 1012 29.88 841 24.83 -5.7 21.8 45 -15.8 3.6
23:20 1012 29.88 841 24.83 -5.9 21.3 46 -15.9 3.4
23:25 1012 29.88 841 24.83 -5.9 21.4 45 -16.1 2.9
23:30 1012 29.88 841 24.83 -5.7 21.8 44 -16 3.2
23:35 1012 29.88 841 24.83 -5.7 21.7 44 -16.1 3
23:40 1012 29.88 841 24.83 -5.8 21.6 45 -15.9 3.4
23:45 1012 29.88 841 24.83 -5.6 21.9 43 -16.4 2.4
23:50 1012 29.88 841 24.83 -5.5 22 43 -16.1 3
23:55 1012 29.88 841 24.83 -5.7 21.8 44 -16.1 2.9
24:00 1012 29.88 841 24.83 -5.8 21.5 45 -15.9 3.4